Hlavní strana
METAR-TAF:

METAR-TAF

Letiště :

Danville, Illinois, Spojené státy americké

zeměpisná šířka: 40-11-58N, zeměpisná délka: 087-35-44W, výška: 212 m

Aktuální stav počasí

Zpráva byla vytvořena před 8 minutami, v 10:15 UTC
Západní vítr 18 kt s nárazy do 22 kt
Teplota -6°C
Vlhkost vzduchu 79%
Tlak 1017 hPa
Viditelnost: 16.1 km
Oblačno až skoro zataženo ve výšce 2100 ft
Zataženo ve výšce 2800 ft

METAR: KDNV 101015Z AUTO 27018G22KT 10SM BKN021 OVC028 M06/M09 A3002 RMK AO2 T10591093

Čas: 04:23 (10:23 UTC)


TAF: chybějící

Stav a předpovědi počasí z více než 4 000 letišť (zprávy METAR a TAF).

Červené a žluté tečky na mapě představují dostupné meteorologické stanice.

Když kurzor umístíte na tečku, zobrazí se název stanice.

Pak kliknutím zobrazíte stav a předpověď počasí.

Chcete-li změnit mapu, kliknutím na zelené tlačítko se znaménkem +mapu přiblížíte, kliknutím na zelené tlačítko se znaménkem – mapu oddálíte a kliknutím na zelené šipky přejdete na sousední mapy.


METAR-TAF: